KROW/ROW METAR and TAF weather

Enter ICAO airport designator
Station Type Date Time Source
KROW METAR 2019/02/21 10:51 UTC NOAA

KROW 211051Z AUTO 34006KT 10SM CLR 02/M13 A2976 RMK AO2 SLP055 T00171128


Station Type Date Time Source
KROW Decoded METAR 2019/02/21 10:51 UTC NOAA

ROSWELL INDUSTRIAL AIR CENTR, NM, United States (KROW) 33-18N 104-32W 1112M
Feb 21, 2019 - 05:51 AM EST / 2019.02.21 1051 UTC
Wind: from the NNW (340 degrees) at 7 MPH (6 KT):0
Visibility: 10 mile(s):0
Sky conditions: clear
Temperature: 35.1 F (1.7 C)
Dew Point: 9.0 F (-12.8 C)
Relative Humidity: 33%
Pressure (altimeter): 29.76 in. Hg (1007 hPa)
ob: KROW 211051Z AUTO 34006KT 10SM CLR 02/M13 A2976 RMK AO2 SLP055 T00171128
cycle: 11

Station Type Date Time Source
KROW TAF 2019/02/21 12:40 UTC NOAA

TAF KROW 211137Z 2112/2212 19006KT P6SM SCT200
FM211700 19015KT P6SM SCT150
FM212000 21018G25KT P6SM SCT130
FM220100 26010KT P6SM SCT100


Example: see airport list